Walton, Indiana
Current Conditions -  °F | °C
As of 10:55 PM on Thursday 27 Nov 2014 (Local Time) from KGUS Reporting Station
Overcast Overcast  
Wind Chill: 16°   Ceiling: 3800
Heat Index: 24°   Visibility: 7mi
Dew Point: 19°   Wind: 7mph
Humidity: 81%   Direction: 290°WNW
Pressure: 30.38"   Gusts: NA
Location:  40.66°N, 86.24°W
Report Text: KGUS 280355Z 29006KT 7SM OVC038 M05/M07 A3038 RMK AO2A SLP298 T10461074
Loading
Personal Weather Stations






























Interactive Weather Map New forecast layout! Learn more

10-Day Weather Forecast

Advertisements
Track Severe Weather on mobile